createdAt,value
2018-08-24T00:00:52.556Z,99.99
2018-08-24T00:01:52.139Z,99.99
2018-08-24T00:02:12.908Z,99.99
2018-08-24T00:03:13.181Z,99.99
2018-08-24T00:04:13.461Z,99.99
2018-08-24T00:05:13.931Z,99.99
2018-08-24T00:06:13.606Z,99.99
2018-08-24T00:07:13.192Z,99.99
2018-08-24T00:08:13.944Z,99.99
2018-08-24T00:09:13.659Z,99.99
2018-08-24T00:10:13.160Z,99.92
2018-08-24T00:11:13.849Z,99.63
2018-08-24T00:12:34.667Z,99.15
2018-08-24T00:13:35.288Z,97.71
2018-08-24T00:14:34.966Z,96.47
2018-08-24T00:15:34.694Z,95.50
2018-08-24T00:16:35.066Z,95.07
2018-08-24T00:17:35.688Z,94.01
2018-08-24T00:18:35.069Z,92.57
2018-08-24T00:19:56.320Z,90.66
2018-08-24T00:20:57.043Z,89.60
2018-08-24T00:21:56.664Z,88.35
2018-08-24T00:22:57.048Z,86.81
2018-08-24T00:24:17.727Z,85.08
2018-08-24T00:25:18.138Z,84.08
2018-08-24T00:26:18.597Z,83.41
2018-08-24T00:27:18.216Z,82.93
2018-08-24T00:28:18.643Z,81.40
2018-08-24T00:29:39.636Z,80.15
2018-08-24T00:30:40.178Z,80.34
2018-08-24T00:31:39.940Z,77.46
2018-08-24T00:32:39.760Z,73.91
2018-08-24T00:34:01.543Z,68.73
2018-08-24T00:35:02.117Z,65.17
2018-08-24T00:36:01.568Z,62.19
2018-08-24T00:37:01.977Z,58.04
2018-08-24T00:38:02.415Z,53.91
2018-08-24T00:39:01.970Z,50.27
2018-08-24T00:40:02.282Z,46.62
2018-08-24T00:41:01.735Z,46.14
2018-08-24T00:42:02.209Z,43.46
2018-08-24T00:43:23.211Z,40.00
2018-08-24T00:44:23.996Z,37.32
2018-08-24T00:45:23.370Z,35.11
2018-08-24T00:46:23.688Z,36.05
2018-08-24T00:47:23.073Z,33.75
2018-08-24T00:48:23.478Z,32.98
2018-08-24T00:49:45.421Z,32.12
2018-08-24T00:51:51.953Z,32.79
2018-08-24T00:52:52.521Z,31.45
2018-08-24T00:53:52.109Z,32.10
2018-08-24T00:54:52.686Z,29.80
2018-08-24T00:55:51.960Z,25.68
2018-08-24T00:56:52.408Z,24.15
2018-08-24T00:57:52.752Z,21.75
2018-08-24T00:58:52.048Z,20.61
2018-08-24T01:00:13.742Z,19.36
2018-08-24T01:01:14.169Z,17.92
2018-08-24T01:02:14.677Z,17.54
2018-08-24T01:03:14.298Z,17.24
2018-08-24T01:04:14.571Z,18.77
2018-08-24T01:05:14.022Z,18.58
2018-08-24T01:06:14.598Z,17.62
2018-08-24T01:07:14.016Z,16.86
2018-08-24T01:08:14.663Z,16.28
2018-08-24T01:09:14.110Z,16.38
2018-08-24T01:10:14.716Z,15.80
2018-08-24T01:11:14.164Z,15.71
2018-08-24T01:12:14.598Z,14.75
2018-08-24T01:13:14.183Z,14.94
2018-08-24T01:14:56.300Z,15.52
2018-08-24T01:15:56.859Z,15.13
2018-08-24T01:17:07.168Z,15.42
2018-08-24T01:17:59.343Z,15.71
2018-08-24T01:18:56.986Z,15.23
2018-08-24T01:19:56.511Z,16.09
2018-08-24T01:21:18.511Z,16.57
2018-08-24T01:22:18.969Z,16.28
2018-08-24T01:23:39.731Z,16.57
2018-08-24T01:24:40.382Z,16.66
2018-08-24T01:25:39.778Z,16.86
2018-08-24T01:26:40.412Z,16.57
2018-08-24T01:27:40.771Z,16.28
2018-08-24T01:28:40.458Z,16.76
2018-08-24T01:29:40.035Z,16.76
2018-08-24T01:30:40.489Z,15.90
2018-08-24T01:31:40.329Z,15.71
2018-08-24T01:32:40.861Z,15.71
2018-08-24T01:34:01.700Z,15.80
2018-08-24T01:35:02.288Z,15.80
2018-08-24T01:36:01.779Z,15.52
2018-08-24T01:37:02.333Z,15.99
2018-08-24T01:38:01.720Z,16.08
2018-08-24T01:39:02.111Z,15.33
2018-08-24T01:40:02.480Z,15.04
2018-08-24T01:41:02.116Z,15.13
2018-08-24T01:42:01.781Z,15.23
2018-08-24T01:43:02.159Z,15.33
2018-08-24T01:44:01.673Z,15.23
2018-08-24T01:45:02.224Z,15.80
2018-08-24T01:46:22.875Z,16.38
2018-08-24T01:47:23.484Z,15.71
2018-08-24T01:48:23.115Z,15.61
2018-08-24T01:49:23.513Z,15.71
2018-08-24T01:50:23.098Z,15.71
2018-08-24T01:51:23.524Z,15.80
2018-08-24T01:52:23.106Z,15.80
2018-08-24T01:53:45.016Z,15.61
2018-08-24T01:54:45.594Z,16.19
2018-08-24T01:56:06.274Z,16.08
2018-08-24T01:57:27.849Z,15.42
2018-08-24T01:58:49.552Z,16.56
2018-08-24T01:59:50.244Z,16.37
2018-08-24T02:00:49.951Z,18.00
2018-08-24T02:02:11.907Z,17.61
2018-08-24T02:03:12.352Z,18.29
2018-08-24T02:04:11.977Z,17.71
2018-08-24T02:05:12.453Z,17.43
2018-08-24T02:06:11.971Z,18.57
2018-08-24T02:07:12.458Z,19.15
2018-08-24T02:08:54.376Z,18.57
2018-08-24T02:09:55.039Z,18.86
2018-08-24T02:10:54.540Z,19.53
2018-08-24T02:11:55.047Z,18.67
2018-08-24T02:13:15.806Z,18.29
2018-08-24T02:14:16.453Z,18.86
2018-08-24T02:15:16.087Z,18.86
2018-08-24T02:16:16.786Z,19.34
2018-08-24T02:17:16.446Z,19.72
2018-08-24T02:18:37.177Z,19.24
2018-08-24T02:19:58.899Z,20.97
2018-08-24T02:20:59.236Z,21.45
2018-08-24T02:21:59.611Z,22.02
2018-08-24T02:22:59.284Z,22.60
2018-08-24T02:23:59.827Z,23.55
2018-08-24T02:24:59.105Z,23.55
2018-08-24T02:25:59.345Z,24.51
2018-08-24T02:27:43.136Z,23.83
2018-08-24T02:28:43.635Z,23.44
2018-08-24T02:29:43.473Z,23.06
2018-08-24T02:30:44.065Z,23.63
2018-08-24T02:31:43.721Z,24.30
2018-08-24T02:32:44.263Z,24.02
2018-08-24T02:33:43.944Z,23.92
2018-08-24T02:35:05.052Z,23.44
2018-08-24T02:36:05.622Z,23.16
2018-08-24T02:37:05.083Z,22.68
2018-08-24T02:38:05.524Z,22.87
2018-08-24T02:39:06.008Z,22.39
2018-08-24T02:40:05.612Z,22.58
2018-08-24T02:41:05.256Z,22.20
2018-08-24T02:42:05.636Z,21.81
2018-08-24T02:43:26.399Z,21.15
2018-08-24T02:44:26.965Z,21.34
2018-08-24T02:45:26.557Z,22.01
2018-08-24T02:46:26.945Z,21.15
2018-08-24T02:47:26.398Z,22.97
2018-08-24T02:48:26.882Z,22.01
2018-08-24T02:49:26.464Z,22.30
2018-08-24T02:50:48.494Z,22.39
2018-08-24T02:51:49.029Z,22.97
2018-08-24T02:52:48.605Z,22.77
2018-08-24T02:53:49.011Z,22.67
2018-08-24T02:54:48.395Z,22.67
2018-08-24T02:55:49.179Z,22.57
2018-08-24T02:56:48.646Z,22.38
2018-08-24T02:57:49.194Z,22.67
2018-08-24T02:58:48.641Z,22.47
2018-08-24T02:59:49.283Z,22.67
2018-08-24T03:00:48.824Z,22.19
2018-08-24T03:01:48.585Z,22.00
2018-08-24T03:02:49.034Z,22.09
2018-08-24T03:03:48.644Z,22.38
2018-08-24T03:04:49.157Z,21.71
2018-08-24T03:05:48.765Z,21.33
2018-08-24T03:06:48.330Z,21.52
2018-08-24T03:07:48.647Z,21.81
2018-08-24T03:08:49.250Z,21.61
2018-08-24T03:09:48.690Z,22.00
2018-08-24T03:10:48.457Z,21.80
2018-08-24T03:11:49.143Z,21.41
2018-08-24T03:12:48.642Z,21.12
2018-08-24T03:14:20.818Z,20.36
2018-08-24T03:15:21.498Z,20.94
2018-08-24T03:16:21.075Z,20.55
2018-08-24T03:18:06.370Z,20.36
2018-08-24T03:19:07.033Z,20.46
2018-08-24T03:20:06.682Z,20.17
2018-08-24T03:21:06.213Z,20.26
2018-08-24T03:22:06.716Z,20.17
2018-08-24T03:23:06.444Z,20.07
2018-08-24T03:24:07.210Z,20.07
2018-08-24T03:25:07.012Z,20.07
2018-08-24T03:26:06.456Z,20.55
2018-08-24T03:27:28.276Z,20.46
2018-08-24T03:28:28.733Z,20.26
2018-08-24T03:29:49.947Z,19.98
2018-08-24T03:30:50.758Z,19.89
2018-08-24T03:31:50.416Z,19.89
2018-08-24T03:32:50.010Z,19.89
2018-08-24T03:33:50.739Z,19.69
2018-08-24T03:34:50.406Z,19.79
2018-08-24T03:35:49.904Z,19.69
2018-08-24T03:36:50.464Z,19.31
2018-08-24T03:38:13.665Z,18.93
2018-08-24T03:39:14.323Z,18.83
2018-08-24T03:40:13.910Z,18.64
2018-08-24T03:41:14.477Z,18.54
2018-08-24T03:42:14.075Z,18.54
2018-08-24T03:43:14.763Z,18.26
2018-08-24T03:44:14.409Z,18.07
2018-08-24T03:46:00.724Z,17.88
2018-08-24T03:47:01.460Z,17.88
2018-08-24T03:48:01.382Z,17.49
2018-08-24T03:49:22.621Z,17.21
2018-08-24T03:50:23.006Z,17.21
2018-08-24T03:51:22.667Z,17.30
2018-08-24T03:52:23.232Z,17.40
2018-08-24T03:53:23.066Z,17.39
2018-08-24T03:54:23.031Z,17.20
2018-08-24T03:55:44.296Z,17.21
2018-08-24T03:56:44.986Z,16.92
2018-08-24T03:57:44.586Z,16.63
2018-08-24T03:58:45.159Z,17.02
2018-08-24T03:59:44.915Z,16.92
2018-08-24T04:00:44.776Z,16.92
2018-08-24T04:02:06.659Z,17.11
2018-08-24T04:03:07.310Z,17.30
2018-08-24T04:04:07.121Z,17.20
2018-08-24T04:05:28.232Z,16.91
2018-08-24T04:06:29.084Z,16.82
2018-08-24T04:07:30.102Z,16.72
2018-08-24T04:08:28.722Z,16.63
2018-08-24T04:09:28.331Z,16.53
2018-08-24T04:10:28.694Z,16.34
2018-08-24T04:11:29.181Z,16.34
2018-08-24T04:12:28.862Z,16.43
2018-08-24T04:13:28.661Z,16.53
2018-08-24T04:14:49.827Z,16.53
2018-08-24T04:16:11.870Z,16.24
2018-08-24T04:17:12.498Z,16.34
2018-08-24T04:18:12.265Z,16.16
2018-08-24T04:19:12.984Z,16.34
2018-08-24T04:20:12.554Z,16.24
2018-08-24T04:21:12.171Z,16.14
2018-08-24T04:22:12.834Z,16.14
2018-08-24T04:23:34.083Z,15.95
2018-08-24T04:24:56.301Z,15.29
2018-08-24T04:25:57.829Z,15.30
2018-08-24T04:26:56.729Z,15.20
2018-08-24T04:27:56.694Z,15.67
2018-08-24T04:28:56.634Z,15.87
2018-08-24T04:29:56.350Z,15.96
2018-08-24T04:30:57.157Z,16.06
2018-08-24T04:31:56.895Z,16.35
2018-08-24T04:32:56.662Z,16.16
2018-08-24T04:33:56.461Z,16.06
2018-08-24T04:34:57.185Z,16.25
2018-08-24T04:35:57.154Z,16.44
2018-08-24T04:36:56.986Z,16.53
2018-08-24T04:37:56.890Z,15.87
2018-08-24T04:38:56.840Z,16.16
2018-08-24T04:39:56.882Z,16.35
2018-08-24T04:40:56.803Z,16.53
2018-08-24T04:41:56.605Z,16.63
2018-08-24T04:42:56.558Z,16.53
2018-08-24T04:43:56.154Z,16.35
2018-08-24T04:45:19.018Z,16.16
2018-08-24T04:46:18.852Z,16.06
2018-08-24T04:47:19.435Z,16.16
2018-08-24T04:48:19.794Z,16.25
2018-08-24T04:49:25.430Z,15.96
2018-08-24T04:50:19.440Z,15.96
2018-08-24T04:51:19.524Z,15.96
2018-08-24T04:52:19.435Z,16.16
2018-08-24T04:53:19.321Z,16.16
2018-08-24T04:54:19.001Z,16.06
2018-08-24T04:55:18.807Z,16.25
2018-08-24T04:56:41.528Z,16.06
2018-08-24T04:57:42.079Z,16.44
2018-08-24T04:59:04.279Z,16.73
2018-08-24T05:00:04.043Z,16.63
2018-08-24T05:01:04.101Z,16.92
2018-08-24T05:02:03.814Z,17.02
2018-08-24T05:03:03.513Z,17.40
2018-08-24T05:04:03.175Z,17.40
2018-08-24T05:05:04.200Z,17.40
2018-08-24T05:06:04.040Z,17.59
2018-08-24T05:07:04.038Z,17.68
2018-08-24T05:08:04.023Z,17.68
2018-08-24T05:09:03.864Z,18.16
2018-08-24T05:10:03.755Z,19.02
2018-08-24T05:11:25.083Z,18.83
2018-08-24T05:12:25.923Z,18.54
2018-08-24T05:13:25.841Z,19.12
2018-08-24T05:14:25.644Z,19.13
2018-08-24T05:15:25.728Z,19.23
2018-08-24T05:16:25.387Z,19.23
2018-08-24T05:17:25.158Z,20.37
2018-08-24T05:18:26.245Z,20.85
2018-08-24T05:19:47.493Z,21.14
2018-08-24T05:21:09.899Z,22.19
2018-08-24T05:22:31.866Z,22.76
2018-08-24T05:23:32.921Z,22.28
2018-08-24T05:24:54.068Z,21.81
2018-08-24T05:25:54.999Z,21.81
2018-08-24T05:26:54.767Z,22.76
2018-08-24T05:27:54.924Z,22.67
2018-08-24T05:29:07.078Z,23.14
2018-08-24T05:29:55.028Z,23.82
2018-08-24T05:30:54.838Z,23.24
2018-08-24T05:31:54.573Z,24.10
2018-08-24T05:32:54.221Z,24.58
2018-08-24T05:33:54.913Z,25.44
2018-08-24T05:34:54.606Z,24.96
2018-08-24T05:36:15.714Z,24.49
2018-08-24T05:37:16.340Z,26.50
2018-08-24T05:38:16.126Z,26.97
2018-08-24T05:39:15.829Z,29.27
2018-08-24T05:40:58.531Z,28.50
2018-08-24T05:41:59.249Z,28.69
2018-08-24T05:42:58.816Z,28.69
2018-08-24T05:43:59.525Z,28.50
2018-08-24T05:44:59.456Z,29.94
2018-08-24T05:45:59.296Z,29.94
2018-08-24T05:46:59.474Z,32.23
2018-08-24T05:48:22.418Z,32.04
2018-08-24T05:50:05.746Z,32.42
2018-08-24T05:51:06.334Z,32.33
2018-08-24T05:52:06.054Z,32.73
2018-08-24T05:53:05.804Z,33.78
2018-08-24T05:54:06.704Z,34.16
2018-08-24T05:55:06.305Z,38.09
2018-08-24T05:56:27.510Z,39.33
2018-08-24T05:57:28.300Z,40.29
2018-08-24T05:58:28.111Z,43.44
2018-08-24T05:59:27.758Z,44.40
2018-08-24T06:00:28.370Z,43.83
2018-08-24T06:01:28.076Z,44.21
2018-08-24T06:02:27.757Z,46.31
2018-08-24T06:03:28.380Z,45.84
2018-08-24T06:04:49.276Z,47.08
2018-08-24T06:05:50.188Z,48.61
2018-08-24T06:06:50.003Z,50.34
2018-08-24T06:08:32.804Z,49.29
2018-08-24T06:09:33.416Z,49.76
2018-08-24T06:10:33.136Z,49.86
2018-08-24T06:11:33.726Z,47.27
2018-08-24T06:12:35.016Z,48.42
2018-08-24T06:13:35.247Z,49.09
2018-08-24T06:14:33.002Z,47.85
2018-08-24T06:15:33.649Z,48.80
2018-08-24T06:16:34.277Z,48.25
2018-08-24T06:17:37.183Z,51.89
2018-08-24T06:18:33.824Z,52.28
2018-08-24T06:19:33.895Z,51.42
2018-08-24T06:20:33.742Z,49.21
2018-08-24T06:21:33.753Z,51.61
2018-08-24T06:22:34.003Z,54.38
2018-08-24T06:23:34.058Z,49.98
2018-08-24T06:24:55.189Z,49.98
2018-08-24T06:25:55.857Z,49.98
2018-08-24T06:26:55.996Z,51.42
2018-08-24T06:27:55.446Z,51.70
2018-08-24T06:28:57.250Z,50.56
2018-08-24T06:29:57.340Z,51.32
2018-08-24T06:30:56.262Z,50.74
2018-08-24T06:31:56.573Z,49.60
2018-08-24T06:32:57.449Z,49.98
2018-08-24T06:33:56.805Z,48.73
2018-08-24T06:34:56.393Z,47.11
2018-08-24T06:35:55.357Z,47.30
2018-08-24T06:36:59.133Z,47.89
2018-08-24T06:38:17.874Z,47.03
2018-08-24T06:39:40.343Z,46.17
2018-08-24T06:40:42.355Z,45.02
2018-08-24T06:41:42.230Z,47.51
2018-08-24T06:42:42.287Z,47.80
2018-08-24T06:44:05.130Z,44.54
2018-08-24T06:45:05.463Z,43.87
2018-08-24T06:46:05.822Z,43.97
2018-08-24T06:47:04.588Z,43.01
2018-08-24T06:48:04.323Z,43.77
2018-08-24T06:49:04.333Z,43.30
2018-08-24T06:50:04.405Z,43.20
2018-08-24T06:51:04.002Z,44.06
2018-08-24T06:52:04.859Z,46.55
2018-08-24T06:53:04.748Z,46.84
2018-08-24T06:54:04.645Z,45.98
2018-08-24T06:55:04.552Z,44.45
2018-08-24T06:56:25.791Z,42.72
2018-08-24T06:57:26.465Z,45.21
2018-08-24T06:58:26.266Z,45.02
2018-08-24T06:59:26.038Z,44.06
2018-08-24T07:00:47.299Z,44.06
2018-08-24T07:01:48.154Z,43.32
2018-08-24T07:02:47.806Z,46.00
2018-08-24T07:04:30.348Z,49.65
2018-08-24T07:05:30.954Z,49.93
2018-08-24T07:06:30.738Z,52.83
2018-08-24T07:07:30.645Z,49.67
2018-08-24T07:08:30.377Z,52.93
2018-08-24T07:09:30.915Z,59.64
2018-08-24T07:10:30.775Z,59.74
2018-08-24T07:11:30.639Z,58.39
2018-08-24T07:12:30.342Z,59.67
2018-08-24T07:13:30.883Z,57.92
2018-08-24T07:14:30.564Z,59.64
2018-08-24T07:15:31.110Z,58.69
2018-08-24T07:16:52.379Z,59.93
2018-08-24T07:17:53.097Z,60.03
2018-08-24T07:18:52.845Z,57.79
2018-08-24T07:20:13.960Z,55.01
2018-08-24T07:21:14.619Z,53.48
2018-08-24T07:22:14.432Z,51.28
2018-08-24T07:23:14.144Z,52.23
2018-08-24T07:24:14.903Z,52.04
2018-08-24T07:25:14.721Z,51.46
2018-08-24T07:26:35.827Z,49.93
2018-08-24T07:27:36.762Z,49.74
2018-08-24T07:28:36.415Z,46.39
2018-08-24T07:29:57.577Z,46.10
2018-08-24T07:31:19.936Z,41.40
2018-08-24T07:32:42.351Z,38.32
2018-08-24T07:33:43.113Z,34.10
2018-08-24T07:34:42.797Z,31.61
2018-08-24T07:35:42.589Z,26.72
2018-08-24T07:37:03.960Z,22.80
2018-08-24T07:38:47.357Z,19.92
2018-08-24T07:39:48.101Z,18.68
2018-08-24T07:40:47.810Z,17.72
2018-08-24T07:41:47.621Z,16.38
2018-08-24T07:42:47.443Z,15.80
2018-08-24T07:43:48.167Z,14.75
2018-08-24T07:45:31.026Z,14.08
2018-08-24T07:46:31.814Z,13.69
2018-08-24T07:47:31.536Z,12.83
2018-08-24T07:48:31.219Z,12.35
2018-08-24T07:49:31.100Z,12.06
2018-08-24T07:50:53.247Z,11.87
2018-08-24T07:51:54.103Z,11.77
2018-08-24T07:52:53.816Z,11.77
2018-08-24T07:53:53.682Z,11.68
2018-08-24T07:54:53.283Z,11.68
2018-08-24T07:55:54.218Z,11.68
2018-08-24T07:56:53.804Z,11.68
2018-08-24T07:57:53.519Z,11.68
2018-08-24T07:58:53.417Z,11.68
2018-08-24T07:59:54.256Z,11.49
2018-08-24T08:00:54.132Z,11.39
2018-08-24T08:02:36.693Z,11.30
2018-08-24T08:03:37.404Z,11.20
2018-08-24T08:04:37.298Z,11.20
2018-08-24T08:05:37.016Z,11.20
2018-08-24T08:06:36.984Z,11.30
2018-08-24T08:07:36.716Z,11.10
2018-08-24T08:08:37.584Z,11.10
2018-08-24T08:09:37.329Z,10.91
2018-08-24T08:10:36.821Z,10.82
2018-08-24T08:12:19.756Z,10.72
2018-08-24T08:13:20.586Z,10.63
2018-08-24T08:14:20.519Z,10.53
2018-08-24T08:15:20.018Z,10.43
2018-08-24T08:16:19.913Z,10.14
2018-08-24T08:17:20.669Z,10.15
2018-08-24T08:18:20.686Z,10.15
2018-08-24T08:19:20.546Z,9.96
2018-08-24T08:20:20.275Z,9.96
2018-08-24T08:21:20.061Z,10.24
2018-08-24T08:22:19.785Z,10.63
2018-08-24T08:23:20.878Z,11.49
2018-08-24T08:24:20.545Z,11.20
2018-08-24T08:25:20.499Z,11.58
2018-08-24T08:26:20.429Z,11.49
2018-08-24T08:27:20.513Z,11.78
2018-08-24T08:28:20.432Z,12.55
2018-08-24T08:29:20.306Z,13.89
2018-08-24T08:30:20.058Z,15.04
2018-08-24T08:31:20.055Z,17.82
2018-08-24T08:32:20.142Z,18.49
2018-08-24T08:33:41.353Z,25.19
2018-08-24T08:34:42.778Z,21.94
2018-08-24T08:35:41.711Z,21.36
2018-08-24T08:36:41.332Z,24.90
2018-08-24T08:37:42.268Z,25.10
2018-08-24T08:38:42.160Z,26.92
2018-08-24T08:39:41.809Z,25.19
2018-08-24T08:40:41.957Z,25.57
2018-08-24T08:41:41.567Z,29.22
2018-08-24T08:42:41.548Z,31.04
2018-08-24T08:43:41.245Z,29.88
2018-08-24T08:44:42.392Z,35.92
2018-08-24T08:45:42.284Z,36.40
2018-08-24T08:46:42.118Z,40.73
2018-08-24T08:47:42.099Z,37.85
2018-08-24T08:49:03.476Z,37.49
2018-08-24T08:50:04.549Z,42.40
2018-08-24T08:51:04.428Z,56.63
2018-08-24T08:52:04.301Z,62.61
2018-08-24T08:53:03.931Z,67.51
2018-08-24T08:54:25.217Z,79.75
2018-08-24T08:55:47.910Z,77.34
2018-08-24T08:56:47.921Z,84.30
2018-08-24T08:58:10.421Z,94.87
2018-08-24T08:59:32.748Z,90.45
2018-08-24T09:00:32.484Z,94.30
2018-08-24T09:01:40.433Z,97.96
2018-08-24T09:02:32.482Z,99.99
2018-08-24T09:03:32.415Z,99.99
2018-08-24T09:04:32.782Z,99.99
2018-08-24T09:05:32.570Z,99.99
2018-08-24T09:06:32.551Z,99.99
2018-08-24T09:07:56.358Z,99.99
2018-08-24T09:08:57.792Z,99.99
2018-08-24T09:09:57.390Z,99.99
2018-08-24T09:10:56.651Z,99.99
2018-08-24T09:12:18.118Z,99.99
2018-08-24T09:13:18.144Z,99.99
2018-08-24T09:14:17.873Z,99.99
2018-08-24T09:15:40.162Z,99.99
2018-08-24T09:17:02.928Z,99.99
2018-08-24T09:18:28.637Z,99.99
2018-08-24T09:19:28.724Z,99.99
2018-08-24T09:20:28.495Z,99.99
2018-08-24T09:21:28.454Z,99.99
2018-08-24T09:22:29.227Z,99.99
2018-08-24T09:23:28.943Z,99.99
2018-08-24T09:24:59.858Z,99.99
2018-08-24T09:25:59.885Z,99.99
2018-08-24T09:27:23.473Z,99.99
2018-08-24T09:28:47.125Z,99.99
2018-08-24T09:29:47.111Z,99.99
2018-08-24T09:30:51.246Z,99.99
2018-08-24T09:31:47.531Z,99.99
2018-08-24T09:32:47.441Z,99.99
2018-08-24T09:33:47.702Z,93.21
2018-08-24T09:34:47.815Z,90.94
2018-08-24T09:35:47.682Z,86.72
2018-08-24T09:36:47.601Z,85.99
2018-08-24T09:37:47.625Z,83.72
2018-08-24T09:38:49.366Z,83.72
2018-08-24T09:39:47.121Z,85.41
2018-08-24T09:40:47.307Z,83.67
2018-08-24T09:42:08.601Z,82.26
2018-08-24T09:43:09.648Z,81.47
2018-08-24T09:44:09.802Z,76.07
2018-08-24T09:45:09.208Z,71.80
2018-08-24T09:46:09.265Z,71.86
2018-08-24T09:47:09.713Z,71.56
2018-08-24T09:48:30.907Z,74.34
2018-08-24T09:49:53.436Z,74.92
2018-08-24T09:50:54.447Z,72.60
2018-08-24T09:51:55.780Z,73.60
2018-08-24T09:52:53.659Z,74.12
2018-08-24T09:53:53.483Z,71.64
2018-08-24T09:55:14.768Z,69.34
2018-08-24T09:56:15.511Z,68.41
2018-08-24T09:57:15.272Z,67.57
2018-08-24T09:58:15.113Z,65.05
2018-08-24T09:59:37.267Z,63.91
2018-08-24T10:00:38.004Z,63.42
2018-08-24T10:01:59.320Z,62.87
2018-08-24T10:03:00.108Z,62.10
2018-08-24T10:03:59.788Z,61.02
2018-08-24T10:04:59.489Z,62.00
2018-08-24T10:06:00.262Z,61.54
2018-08-24T10:07:21.849Z,62.74
2018-08-24T10:08:22.573Z,60.38
2018-08-24T10:10:06.007Z,62.48
2018-08-24T10:11:07.327Z,59.20
2018-08-24T10:12:06.013Z,59.69
2018-08-24T10:13:28.443Z,61.45
2018-08-24T10:14:29.126Z,60.20
2018-08-24T10:15:28.975Z,61.30
2018-08-24T10:16:28.870Z,62.21
2018-08-24T10:17:28.855Z,64.11
2018-08-24T10:18:29.378Z,64.56
2018-08-24T10:19:29.177Z,65.98
2018-08-24T10:20:28.873Z,67.40
2018-08-24T10:21:28.783Z,64.95
2018-08-24T10:22:29.793Z,64.11
2018-08-24T10:23:50.034Z,66.40
2018-08-24T10:24:50.815Z,66.02
2018-08-24T10:25:50.685Z,67.05
2018-08-24T10:26:50.491Z,65.82
2018-08-24T10:27:50.168Z,64.43
2018-08-24T10:29:12.956Z,61.17
2018-08-24T10:30:34.590Z,59.84
2018-08-24T10:31:35.339Z,59.74
2018-08-24T10:32:35.093Z,59.22
2018-08-24T10:33:56.672Z,58.47
2018-08-24T10:34:56.670Z,56.52
2018-08-24T10:35:56.737Z,55.63
2018-08-24T10:36:56.658Z,57.15
2018-08-24T10:37:56.567Z,57.32
2018-08-24T10:38:57.560Z,58.36
2018-08-24T10:40:18.727Z,59.74
2018-08-24T10:41:19.522Z,58.73
2018-08-24T10:42:19.411Z,58.57
2018-08-24T10:43:19.345Z,57.40
2018-08-24T10:44:19.153Z,56.34
2018-08-24T10:45:40.633Z,56.07
2018-08-24T10:47:24.545Z,53.57
2018-08-24T10:48:25.335Z,54.47
2018-08-24T10:49:25.093Z,54.01
2018-08-24T10:50:25.123Z,52.58
2018-08-24T10:51:25.043Z,51.82
2018-08-24T10:52:25.114Z,49.85
2018-08-24T10:53:50.687Z,50.48
2018-08-24T10:54:51.554Z,52.36
2018-08-24T10:55:51.248Z,52.37
2018-08-24T10:56:51.257Z,53.45
2018-08-24T10:57:50.968Z,53.86
2018-08-24T10:59:12.313Z,54.68
2018-08-24T11:00:12.938Z,55.21
2018-08-24T11:01:12.926Z,55.38
2018-08-24T11:02:12.922Z,55.83
2018-08-24T11:03:12.972Z,54.86
2018-08-24T11:04:13.562Z,54.60
2018-08-24T11:05:12.328Z,54.96
2018-08-24T11:06:13.106Z,55.41
2018-08-24T11:07:13.130Z,55.04
2018-08-24T11:08:13.006Z,52.45
2018-08-24T11:09:35.601Z,53.86
2018-08-24T11:10:36.185Z,52.59
2018-08-24T11:11:57.469Z,50.48
2018-08-24T11:12:58.369Z,50.12
2018-08-24T11:13:58.321Z,49.34
2018-08-24T11:14:58.345Z,50.09
2018-08-24T11:15:58.090Z,50.38
2018-08-24T11:17:20.007Z,49.41
2018-08-24T11:18:20.826Z,50.29
2018-08-24T11:20:04.527Z,49.41
2018-08-24T11:21:06.326Z,50.53
2018-08-24T11:22:05.575Z,50.80
2018-08-24T11:23:04.570Z,50.96
2018-08-24T11:24:05.743Z,50.12
2018-08-24T11:25:04.988Z,50.07
2018-08-24T11:26:05.234Z,49.02
2018-08-24T11:27:05.417Z,48.00
2018-08-24T11:28:05.362Z,48.47
2018-08-24T11:29:26.054Z,48.00
2018-08-24T11:30:26.042Z,48.61
2018-08-24T11:31:27.163Z,47.54
2018-08-24T11:32:49.512Z,48.15
2018-08-24T11:33:49.635Z,47.69
2018-08-24T11:34:49.680Z,47.13
2018-08-24T11:35:49.573Z,46.08
2018-08-24T11:36:50.090Z,46.39
2018-08-24T11:37:50.054Z,45.90
2018-08-24T11:38:49.399Z,45.68
2018-08-24T11:39:49.353Z,45.88
2018-08-24T11:40:49.210Z,45.42
2018-08-24T11:41:49.315Z,45.51
2018-08-24T11:42:49.028Z,44.97
2018-08-24T11:43:51.013Z,44.90
2018-08-24T11:44:49.250Z,44.12
2018-08-24T11:45:49.556Z,43.55
2018-08-24T11:47:12.532Z,42.68
2018-08-24T11:48:12.263Z,42.55
2018-08-24T11:49:13.308Z,43.82
2018-08-24T11:50:34.752Z,43.68
2018-08-24T11:51:35.209Z,43.95
2018-08-24T11:52:58.607Z,43.74
2018-08-24T11:53:57.536Z,43.76
2018-08-24T11:55:19.514Z,43.64
2018-08-24T11:56:19.674Z,44.44
2018-08-24T11:57:19.844Z,43.49
2018-08-24T11:58:19.474Z,43.59
2018-08-24T11:59:19.440Z,43.41
2018-08-24T12:00:19.496Z,42.85
2018-08-24T12:01:19.403Z,42.50
2018-08-24T12:02:20.377Z,41.97
2018-08-24T12:03:20.816Z,41.77
2018-08-24T12:04:20.071Z,41.31
2018-08-24T12:05:22.699Z,41.23
2018-08-24T12:06:46.908Z,41.33
2018-08-24T12:07:46.258Z,40.53
2018-08-24T12:09:08.987Z,40.55
2018-08-24T12:10:08.911Z,40.17
2018-08-24T12:11:08.002Z,39.59
2018-08-24T12:12:30.342Z,38.71
2018-08-24T12:13:30.677Z,37.62
2018-08-24T12:14:31.320Z,37.70
2018-08-24T12:15:30.599Z,38.75
2018-08-24T12:17:15.598Z,38.67
2018-08-24T12:18:15.471Z,38.28
2018-08-24T12:19:14.604Z,37.70
2018-08-24T12:20:14.809Z,38.48
2018-08-24T12:21:40.285Z,38.48
2018-08-24T12:23:03.002Z,38.71
2018-08-24T12:24:02.816Z,37.65
2018-08-24T12:25:03.226Z,37.12
2018-08-24T12:26:02.903Z,37.50
2018-08-24T12:27:03.062Z,38.18
2018-08-24T12:28:03.218Z,39.72
2018-08-24T12:29:04.122Z,39.06
2018-08-24T12:30:02.323Z,38.79
2018-08-24T12:31:02.625Z,38.79
2018-08-24T12:32:03.519Z,37.81
2018-08-24T12:33:03.450Z,36.93
2018-08-24T12:34:03.169Z,35.14
2018-08-24T12:35:03.681Z,35.51
2018-08-24T12:36:02.808Z,36.80
2018-08-24T12:37:03.021Z,36.80
2018-08-24T12:38:03.114Z,36.96
2018-08-24T12:39:03.067Z,37.89
2018-08-24T12:40:03.247Z,39.41
2018-08-24T12:41:04.911Z,39.72
2018-08-24T12:42:03.731Z,39.51
2018-08-24T12:43:02.833Z,39.92
2018-08-24T12:44:25.129Z,40.08
2018-08-24T12:45:27.303Z,40.83
2018-08-24T12:47:09.726Z,42.78
2018-08-24T12:48:11.230Z,42.11
2018-08-24T12:49:33.542Z,42.16
2018-08-24T12:51:18.624Z,41.48
2018-08-24T12:52:18.514Z,41.09
2018-08-24T12:53:19.327Z,41.44
2018-08-24T12:54:18.600Z,42.60
2018-08-24T12:55:18.269Z,41.67
2018-08-24T12:56:20.094Z,40.91
2018-08-24T12:57:18.709Z,40.81
2018-08-24T12:58:18.463Z,40.55
2018-08-24T12:59:43.354Z,39.76
2018-08-24T13:00:45.880Z,38.30
2018-08-24T13:01:45.730Z,36.63
2018-08-24T13:02:44.541Z,36.65
2018-08-24T13:03:46.711Z,35.96
2018-08-24T13:04:44.177Z,36.43
2018-08-24T13:05:43.307Z,36.82
2018-08-24T13:06:43.484Z,36.92
2018-08-24T13:08:28.881Z,36.25
2018-08-24T13:09:31.198Z,36.35
2018-08-24T13:10:54.005Z,37.13
2018-08-24T13:11:55.142Z,36.57
2018-08-24T13:12:53.840Z,36.88
2018-08-24T13:13:54.888Z,36.00
2018-08-24T13:14:54.793Z,35.69
2018-08-24T13:15:54.937Z,35.88
2018-08-24T13:16:53.971Z,35.69
2018-08-24T13:18:17.516Z,36.57
2018-08-24T13:19:17.583Z,36.39
2018-08-24T13:20:18.483Z,36.08
2018-08-24T13:21:42.407Z,35.86
2018-08-24T13:22:41.224Z,36.51
2018-08-24T13:23:41.119Z,37.16
2018-08-24T13:25:28.302Z,39.00
2018-08-24T13:26:28.120Z,38.24
2018-08-24T13:27:28.346Z,38.44
2018-08-24T13:28:28.329Z,38.93
2018-08-24T13:29:28.435Z,39.04
2018-08-24T13:30:28.749Z,38.07
2018-08-24T13:31:51.550Z,38.26
2018-08-24T13:32:51.455Z,38.28
2018-08-24T13:33:51.177Z,38.36
2018-08-24T13:34:52.193Z,38.15
2018-08-24T13:35:51.031Z,38.91
2018-08-24T13:36:51.158Z,38.89
2018-08-24T13:37:51.088Z,40.41
2018-08-24T13:38:51.639Z,41.06
2018-08-24T13:39:51.957Z,41.74
2018-08-24T13:40:53.274Z,41.57
2018-08-24T13:41:51.113Z,41.30
2018-08-24T13:42:51.422Z,41.39
2018-08-24T13:43:51.733Z,41.39
2018-08-24T13:44:50.726Z,41.20
2018-08-24T13:46:36.346Z,42.03
2018-08-24T13:47:39.750Z,42.03
2018-08-24T13:48:36.750Z,42.61
2018-08-24T13:49:37.023Z,41.94
2018-08-24T13:50:36.999Z,42.27
2018-08-24T13:51:37.533Z,41.80